Wind From: 14-09-2019 09:00 Until: 15-09-2019 21:00 warning for: Wind Level: Yellow info button

My Other Sites:

SYKIA HOMEWEATHERSTATIONsikeaweather.alinos.eu

SYKIA METEOTEMPLATEsykiameteo.alinos.eu

alinos.eualinos.eu



Nearby METAR Reports

   
LGEL - Elefsis (hel-Afb, Greece
Distance from station: E 77 km
Updated: 15-09-2019 17:20
Few Clouds  
Few Clouds  
   Wind: North 18.5 km/h<br />Gust to 18.5 km/h
Wind: North 18.5 km/h
Gust to 18.5 km/h
Temperature: 29°C
Dew Point: 11°C
Humidity: 33%
Barometer: 1018 hPa
Clouds: Few Clouds
Visibility: More than 10 km
Cloud details: Few Clouds 2500 ft
LGEL 151420Z 35010G20KT 9999 FEW025 29/11 Q1018
LGRX - Araxos (civ/Afb), Greece
Distance from station: W 110 km
Updated: 15-09-2019 17:20
Clear  
Clear  
   Wind: NNE 20.4 km/h
Wind: NNE 20.4 km/h
Temperature: 32°C
Dew Point: 8°C
Humidity: 22%
Barometer: 1018 hPa
Visibility: More than 10 km
Cloud details: Clear
LGRX 151420Z 03011KT CAVOK 32/08 Q1018
LGAV - Athens/Elef-Ven, Greece
Distance from station: E 113 km
Updated: 15-09-2019 17:20
Few Clouds  
Few Clouds  
   Wind: NE 44.4 km/h
Wind: NE 44.4 km/h
Temperature: 27°C
Heat Index: 27°C
Dew Point: 13°C
Humidity: 42%
Barometer: 1019 hPa
Clouds: Few Clouds
Visibility: More than 10 km
Cloud details: Few Clouds 3000 ft
LGAV 151420Z 04024KT 9999 FEW030 27/13 Q1019 NOSIG
LGAD - Andravida (civ/A, Greece
Distance from station: W 124 km
Updated: 15-09-2019 17:20
Clear  
Clear  
   Wind: NNE 29.6 km/h
Wind: NNE 29.6 km/h
Temperature: 32°C
Dew Point: 6°C
Humidity: 20%
Barometer: 1017 hPa
Visibility: More than 10 km
Cloud details: Clear
LGAD 151420Z 03016KT CAVOK 32/06 Q1017
LGKL - Kalamata (hel-Af, Greece
Distance from station: SSW 124 km
Updated: 15-09-2019 17:20
Clear  
Clear  
   Wind: NE 16.7 km/h
Wind: NE 16.7 km/h
Temperature: 32°C
Dew Point: 7°C
Humidity: 21%
Barometer: 1017 hPa
Visibility: More than 10 km
Cloud details: Clear
LGKL 151420Z 05009KT CAVOK 32/07 Q1017
LGBL - Nea Anchialos, Greece
Distance from station: N 129 km
Updated: 15-09-2019 17:20
Few Clouds  
Few Clouds  
   Wind: ESE 20.4 km/h
Wind: ESE 20.4 km/h
Temperature: 28°C
Dew Point: 11°C
Humidity: 35%
Barometer: 1021 hPa
Clouds: Few Clouds
Visibility: More than 10 km
Cloud details: Few Clouds 3000 ft
LGBL 151420Z 11011KT 9999 FEW030 28/11 Q1021

Script developed by  Saratoga-weather.org Adapted for the template by  Weerstation Leuven

You find our weather info also at:

European Weather Network

Weather Underground

AWEKAS

Citizen Weather Observer Program (CWOP)

HAMweather, WeatherForYou, PWS Weather

UK Metoffice

Equipment we use:

Weather-station
Davis Wireless Vantage Pro2

Davis Wireless Vantage Pro2